Time;durP1;ratioP1;P1;durP2;ratioP2;P2;SDS_P1;SDS_P2;PMS_P1;PMS_P2;Temp;Humidity;BMP_temperature;BMP_pressure;BME280_temperature;BME280_humidity;BME280_pressure;Samples;Min_cycle;Max_cycle;Signal;HPM_P1;HPM_P2
2023/12/04 00:03:53;;;;;;;20.60;12.00;;;;;;;-2.89;88.85;100303.29;219069;1254;140419;-71
2023/12/04 00:08:59;;;;;;;16.70;11.40;;;;;;;-2.90;88.75;100309.66;218340;1254;140546;-68
2023/12/04 00:14:04;;;;;;;17.00;10.00;;;;;;;-2.91;88.58;100315.50;219997;1254;140034;-69
2023/12/04 00:19:09;;;;;;;25.70;11.70;;;;;;;-2.92;88.49;100316.42;219074;1254;141240;-67
2023/12/04 00:24:14;;;;;;;23.90;12.50;;;;;;;-2.94;88.36;100317.64;217959;1255;142252;-67
2023/12/04 00:29:20;;;;;;;20.60;12.10;;;;;;;-2.95;88.30;100323.67;220284;1254;140721;-67
2023/12/04 00:34:24;;;;;;;12.80;8.30;;;;;;;-2.97;87.88;100329.40;218341;1254;140319;-69
2023/12/04 00:39:30;;;;;;;16.50;10.70;;;;;;;-3.02;87.77;100336.80;219787;1254;140387;-68
2023/12/04 00:44:36;;;;;;;22.80;12.70;;;;;;;-3.11;87.78;100346.38;219185;1254;141741;-69
2023/12/04 00:49:40;;;;;;;19.10;11.30;;;;;;;-3.16;87.53;100349.32;218152;1254;140477;-68
2023/12/04 00:54:46;;;;;;;16.90;11.40;;;;;;;-3.26;87.28;100354.65;219474;1254;141811;-68
2023/12/04 00:59:52;;;;;;;16.60;11.50;;;;;;;-3.31;87.47;100360.49;218618;1254;140764;-68
2023/12/04 01:04:58;;;;;;;18.30;12.90;;;;;;;-3.36;87.44;100362.17;218075;1257;140037;-68
2023/12/04 01:10:04;;;;;;;13.90;9.70;;;;;;;-3.40;87.45;100366.13;219146;1254;140351;-67
2023/12/04 01:15:09;;;;;;;25.10;13.10;;;;;;;-3.42;87.59;100367.13;219420;1253;140070;-67
2023/12/04 01:20:15;;;;;;;19.50;11.20;;;;;;;-3.41;87.82;100365.30;219422;1253;140907;-69
2023/12/04 01:25:20;;;;;;;19.10;12.00;;;;;;;-3.41;87.60;100362.23;218447;1254;141247;-71
2023/12/04 01:30:25;;;;;;;17.20;10.10;;;;;;;-3.40;87.76;100353.45;218240;1253;141056;-67
2023/12/04 01:35:30;;;;;;;19.70;10.90;;;;;;;-3.40;87.58;100358.12;218278;1255;140834;-67
2023/12/04 01:40:36;;;;;;;18.40;10.60;;;;;;;-3.42;87.60;100364.52;218179;1254;140254;-66
2023/12/04 01:45:41;;;;;;;21.90;12.60;;;;;;;-3.45;87.74;100365.83;218635;1254;140412;-67
2023/12/04 01:50:46;;;;;;;19.20;12.40;;;;;;;-3.50;87.35;100370.98;218398;1254;160875;-66
2023/12/04 01:55:53;;;;;;;20.30;12.60;;;;;;;-3.59;87.38;100379.39;218293;1257;140860;-67
2023/12/04 02:00:57;;;;;;;23.70;12.60;;;;;;;-3.65;87.55;100373.45;218813;1253;140601;-66
2023/12/04 02:06:03;;;;;;;24.20;13.70;;;;;;;-3.64;87.68;100377.87;218866;1253;141777;-67
2023/12/04 02:11:09;;;;;;;35.10;15.20;;;;;;;-3.67;87.64;100375.16;219003;1254;140261;-66
2023/12/04 02:16:16;;;;;;;32.20;14.50;;;;;;;-3.68;87.65;100372.73;219446;1254;140989;-69
2023/12/04 02:21:22;;;;;;;21.90;12.90;;;;;;;-3.68;87.73;100378.78;217972;1257;141697;-70
2023/12/04 02:26:34;;;;;;;25.00;13.80;;;;;;;-3.66;87.94;100369.92;221046;1254;140366;-70
2023/12/04 02:31:41;;;;;;;29.50;16.40;;;;;;;-3.64;87.81;100377.19;219073;1254;140015;-71
2023/12/04 02:36:46;;;;;;;24.10;14.70;;;;;;;-3.63;87.75;100374.70;220869;1253;141199;-72
2023/12/04 02:41:51;;;;;;;22.90;13.20;;;;;;;-3.63;87.62;100381.48;218678;1254;140298;-74
2023/12/04 02:46:56;;;;;;;33.30;16.60;;;;;;;-3.67;87.41;100382.51;220406;1254;141088;-74
2023/12/04 02:52:02;;;;;;;23.80;12.40;;;;;;;-3.66;87.67;100387.58;218003;1257;140195;-72
2023/12/04 02:57:07;;;;;;;25.60;14.70;;;;;;;-3.64;87.61;100385.02;219518;1253;140646;-71
2023/12/04 03:02:13;;;;;;;24.60;15.40;;;;;;;-3.62;87.63;100385.67;218715;1254;140110;-70
2023/12/04 03:07:20;;;;;;;21.50;13.70;;;;;;;-3.60;87.47;100384.17;218698;1254;141027;-67
2023/12/04 03:12:24;;;;;;;28.00;15.20;;;;;;;-3.63;87.64;100385.11;218876;1254;141210;-70
2023/12/04 03:17:28;;;;;;;27.30;14.90;;;;;;;-3.64;87.79;100384.98;218739;1254;140871;-69
2023/12/04 03:22:36;;;;;;;28.30;13.80;;;;;;;-3.66;87.47;100394.38;218129;1254;141206;-68
2023/12/04 03:27:41;;;;;;;20.90;11.90;;;;;;;-3.71;87.79;100394.69;218707;1253;140862;-68
2023/12/04 03:32:47;;;;;;;25.80;12.90;;;;;;;-3.71;87.76;100400.92;218246;1254;212014;-69
2023/12/04 03:37:53;;;;;;;25.60;12.60;;;;;;;-3.70;87.92;100405.02;218416;1254;140308;-68
2023/12/04 03:42:59;;;;;;;26.40;13.90;;;;;;;-3.72;87.87;100400.27;218094;1257;140347;-68
2023/12/04 03:48:05;;;;;;;30.80;15.90;;;;;;;-3.72;87.93;100402.39;218777;1257;140819;-68
2023/12/04 03:53:11;;;;;;;26.60;13.70;;;;;;;-3.72;87.99;100402.91;218393;1253;140410;-68
2023/12/04 03:58:16;;;;;;;28.00;13.30;;;;;;;-3.73;87.97;100399.54;219509;1254;142168;-67
2023/12/04 04:03:22;;;;;;;30.00;15.60;;;;;;;-3.75;88.06;100402.92;218411;1254;140561;-66
2023/12/04 04:08:30;;;;;;;29.80;13.60;;;;;;;-3.75;88.16;100401.71;218222;1256;141266;-67
2023/12/04 04:13:35;;;;;;;29.10;15.80;;;;;;;-3.76;87.99;100404.23;219620;1254;141404;-67
2023/12/04 04:18:38;;;;;;;31.60;16.80;;;;;;;-3.77;88.06;100401.15;219021;1253;140412;-67
2023/12/04 04:23:45;;;;;;;22.70;11.10;;;;;;;-3.74;88.23;100393.83;219656;1253;140615;-67
2023/12/04 04:28:50;;;;;;;35.50;15.80;;;;;;;-3.70;88.14;100397.71;219991;1253;141374;-67
2023/12/04 04:33:55;;;;;;;38.10;17.40;;;;;;;-3.68;88.27;100395.23;220893;1253;141248;-67
2023/12/04 04:38:59;;;;;;;31.00;16.00;;;;;;;-3.63;88.20;100393.59;220908;1253;141038;-67
2023/12/04 04:44:05;;;;;;;30.00;14.80;;;;;;;-3.60;88.06;100392.35;219532;1253;140909;-65
2023/12/04 04:49:09;;;;;;;30.30;14.00;;;;;;;-3.59;88.17;100398.48;220872;1253;140189;-66
2023/12/04 04:54:15;;;;;;;32.20;14.50;;;;;;;-3.57;88.11;100400.39;218574;1254;140647;-64
2023/12/04 04:59:20;;;;;;;26.90;14.70;;;;;;;-3.57;87.99;100396.90;219619;1256;140550;-64
2023/12/04 05:04:25;;;;;;;31.80;13.60;;;;;;;-3.59;88.10;100396.92;218407;1257;141414;-64
2023/12/04 05:09:30;;;;;;;30.80;14.60;;;;;;;-3.61;88.15;100396.77;217935;1257;140961;-64
2023/12/04 05:14:35;;;;;;;31.30;15.10;;;;;;;-3.63;87.80;100397.94;218598;1258;141493;-65
2023/12/04 05:19:40;;;;;;;29.10;16.20;;;;;;;-3.64;88.04;100398.20;218010;1257;140382;-64
2023/12/04 05:24:45;;;;;;;28.60;14.30;;;;;;;-3.66;88.06;100397.20;218111;1254;140215;-65
2023/12/04 05:29:51;;;;;;;28.60;13.80;;;;;;;-3.69;88.17;100404.20;218459;1257;141791;-64
2023/12/04 05:34:57;;;;;;;31.90;13.30;;;;;;;-3.69;88.08;100407.02;218516;1253;140362;-69
2023/12/04 05:40:04;;;;;;;28.00;14.60;;;;;;;-3.68;88.23;100406.08;218299;1253;140873;-71
2023/12/04 05:45:09;;;;;;;29.70;14.70;;;;;;;-3.69;88.24;100404.61;218151;1253;140318;-70
2023/12/04 05:50:16;;;;;;;27.70;15.00;;;;;;;-3.69;88.28;100407.16;218066;1255;140296;-71
2023/12/04 05:55:21;;;;;;;32.60;16.70;;;;;;;-3.67;88.25;100406.16;220969;1253;143624;-71
2023/12/04 06:00:27;;;;;;;11.60;6.90;;;;;;;-3.67;88.36;100399.83;219044;1254;140360;-68
2023/12/04 06:05:33;;;;;;;21.90;12.60;;;;;;;-3.65;88.18;100396.36;218352;1253;140097;-69
2023/12/04 06:10:38;;;;;;;26.50;13.30;;;;;;;-3.64;88.18;100395.21;220005;1253;140428;-68
2023/12/04 06:15:44;;;;;;;24.60;14.40;;;;;;;-3.64;88.05;100398.41;218691;1254;140431;-68
2023/12/04 06:20:50;;;;;;;28.40;16.00;;;;;;;-3.65;88.00;100400.25;219022;1254;140297;-69
2023/12/04 06:25:55;;;;;;;23.20;12.00;;;;;;;-3.65;88.22;100398.11;220344;1253;140759;-68
2023/12/04 06:31:00;;;;;;;31.70;15.20;;;;;;;-3.66;87.99;100409.54;220956;1253;245913;-69
2023/12/04 06:36:07;;;;;;;31.90;16.40;;;;;;;-3.66;87.99;100410.36;220089;1253;1091540;-68
2023/12/04 06:41:12;;;;;;;31.30;13.70;;;;;;;-3.64;87.97;100414.02;220438;1255;140160;-69
2023/12/04 06:46:19;;;;;;;28.50;17.10;;;;;;;-3.62;87.87;100411.21;220412;1253;140388;-67
2023/12/04 06:51:22;;;;;;;29.30;16.90;;;;;;;-3.58;87.82;100409.19;219044;1254;140939;-67
2023/12/04 06:56:27;;;;;;;30.60;17.90;;;;;;;-3.54;87.86;100409.38;218869;1254;140121;-66
2023/12/04 07:01:34;;;;;;;25.00;12.20;;;;;;;-3.52;87.78;100407.30;219023;1254;139824;-68
2023/12/04 07:06:42;;;;;;;28.10;13.00;;;;;;;-3.51;87.84;100404.59;218760;1257;141853;-70
2023/12/04 07:11:47;;;;;;;24.00;13.60;;;;;;;-3.49;87.78;100407.21;218736;1254;233555;-74
2023/12/04 07:16:51;;;;;;;27.50;14.30;;;;;;;-3.46;87.62;100412.89;218993;1254;140428;-69
2023/12/04 07:21:56;;;;;;;26.50;15.50;;;;;;;-3.44;87.49;100412.36;218123;1257;140172;-72
2023/12/04 07:27:01;;;;;;;30.50;15.30;;;;;;;-3.42;87.82;100406.96;219177;1254;140016;-68
2023/12/04 07:32:07;;;;;;;28.50;16.20;;;;;;;-3.33;87.93;100414.85;218495;1254;140826;-70
2023/12/04 07:37:11;;;;;;;30.30;14.20;;;;;;;-3.27;87.77;100410.85;218751;1254;140239;-70
2023/12/04 07:42:14;;;;;;;25.20;13.70;;;;;;;-3.23;87.67;100414.50;218385;1257;141340;-67
2023/12/04 07:47:20;;;;;;;31.40;15.40;;;;;;;-3.20;87.54;100413.94;218907;1254;140892;-75
2023/12/04 07:52:30;;;;;;;21.30;11.50;;;;;;;-3.15;87.50;100409.85;218209;1257;141349;-67
2023/12/04 07:57:36;;;;;;;33.30;17.90;;;;;;;-3.11;87.48;100405.18;218745;1255;141806;-67
2023/12/04 08:02:44;;;;;;;27.30;15.30;;;;;;;-3.05;87.48;100401.20;218430;1254;140445;-67
2023/12/04 08:07:51;;;;;;;28.50;15.40;;;;;;;-2.99;87.09;100405.72;218807;1253;140113;-67
2023/12/04 08:12:56;;;;;;;29.20;16.20;;;;;;;-2.97;86.85;100415.29;218514;1257;142424;-66
2023/12/04 08:18:02;;;;;;;32.20;16.40;;;;;;;-2.97;86.54;100415.67;218652;1254;140958;-67
2023/12/04 08:23:08;;;;;;;34.80;15.80;;;;;;;-2.99;86.64;100421.51;218194;1254;140197;-68
2023/12/04 08:28:15;;;;;;;;;;;;;;;-2.93;86.44;100427.98;219100;1254;142127;-69
2023/12/04 08:33:20;;;;;;;43.60;22.90;;;;;;;-2.84;86.40;100430.86;218823;1254;126761;-68
2023/12/04 08:38:25;;;;;;;40.20;27.20;;;;;;;-2.67;86.34;100438.11;219027;1254;141788;-70
2023/12/04 08:43:31;;;;;;;37.00;21.40;;;;;;;-2.48;86.64;100441.11;218420;1254;141930;-71
2023/12/04 08:48:37;;;;;;;37.50;19.30;;;;;;;-2.36;86.21;100436.73;219038;1254;140336;-66
2023/12/04 08:53:42;;;;;;;28.70;18.30;;;;;;;-2.30;85.69;100441.51;218839;1254;141580;-68
2023/12/04 08:58:47;;;;;;;33.30;18.90;;;;;;;-2.25;85.59;100435.27;220115;1254;141144;-71
2023/12/04 09:03:52;;;;;;;39.30;18.60;;;;;;;-2.19;85.37;100443.05;218267;1254;139949;-70
2023/12/04 09:08:58;;;;;;;33.30;18.70;;;;;;;-1.97;85.60;100447.17;218547;1259;140993;-69
2023/12/04 09:14:12;;;;;;;32.00;18.80;;;;;;;-1.77;85.32;100440.98;218901;1254;139886;-66
2023/12/04 09:19:18;;;;;;;31.50;18.10;;;;;;;-1.60;85.19;100446.45;218193;1254;140218;-68
2023/12/04 09:24:23;;;;;;;37.40;18.60;;;;;;;-1.57;84.59;100443.23;218191;1254;140147;-68
2023/12/04 09:29:28;;;;;;;35.50;20.80;;;;;;;-1.63;84.15;100444.31;219114;1254;140558;-69
2023/12/04 09:34:34;;;;;;;37.00;19.60;;;;;;;-1.76;83.99;100445.41;218198;1258;140301;-72
2023/12/04 09:39:40;;;;;;;31.50;16.80;;;;;;;-1.73;83.94;100447.45;218267;1255;141264;-71
2023/12/04 09:44:47;;;;;;;36.50;18.40;;;;;;;-1.78;83.63;100445.96;218147;1254;140252;-67
2023/12/04 09:49:54;;;;;;;33.50;19.50;;;;;;;-1.81;83.74;100439.60;218636;1259;141280;-67
2023/12/04 09:54:59;;;;;;;35.40;17.30;;;;;;;-1.78;83.69;100441.61;218129;1257;140104;-72
2023/12/04 10:00:06;;;;;;;35.40;18.60;;;;;;;-1.79;83.41;100440.31;218243;1254;139799;-68
2023/12/04 10:05:11;;;;;;;31.30;20.20;;;;;;;-1.67;83.45;100442.02;218438;1254;140696;-69
2023/12/04 10:10:16;;;;;;;35.90;17.40;;;;;;;-1.56;83.58;100431.48;218391;1255;140286;-72
2023/12/04 10:15:21;;;;;;;33.50;17.20;;;;;;;-1.47;83.33;100424.33;218312;1254;140186;-72
2023/12/04 10:20:28;;;;;;;35.30;17.60;;;;;;;-1.36;83.22;100424.23;218882;1254;140102;-69
2023/12/04 10:25:33;;;;;;;47.40;25.60;;;;;;;-1.28;82.95;100417.72;218729;1258;141667;-69
2023/12/04 10:30:39;;;;;;;53.50;36.80;;;;;;;-1.17;82.83;100416.80;219843;1256;140161;-70
2023/12/04 10:35:46;;;;;;;38.30;21.90;;;;;;;-1.18;82.49;100415.70;218723;1258;140108;-68
2023/12/04 10:40:51;;;;;;;36.70;22.50;;;;;;;-1.37;82.06;100411.54;218481;1254;140103;-69
2023/12/04 10:45:57;;;;;;;45.40;25.50;;;;;;;-1.53;82.01;100405.73;218381;1254;140576;-68
2023/12/04 10:51:04;;;;;;;38.40;18.30;;;;;;;-1.69;81.77;100405.11;219241;1257;140398;-68
2023/12/04 10:56:17;;;;;;;34.10;19.40;;;;;;;-1.82;81.73;100402.11;219360;1254;140409;-71
2023/12/04 11:01:23;;;;;;;26.20;15.80;;;;;;;-1.92;82.10;100400.08;218527;1254;140047;-71
2023/12/04 11:06:30;;;;;;;34.80;19.00;;;;;;;-2.04;81.60;100401.52;219253;1254;141243;-67
2023/12/04 11:11:40;;;;;;;34.80;20.50;;;;;;;-2.11;81.96;100402.80;218832;1255;140212;-68
2023/12/04 11:16:57;;;;;;;33.70;17.60;;;;;;;-2.16;81.75;100398.92;218609;1254;140038;-67
2023/12/04 11:22:03;;;;;;;39.80;19.90;;;;;;;-2.08;82.02;100396.81;218548;1259;209009;-69
2023/12/04 11:27:08;;;;;;;24.60;17.10;;;;;;;-1.97;82.31;100393.55;219243;1257;140707;-69
2023/12/04 11:32:16;;;;;;;29.70;19.30;;;;;;;-1.87;82.28;100389.15;218577;1257;140013;-69
2023/12/04 11:37:23;;;;;;;35.50;20.70;;;;;;;-1.64;82.39;100379.70;218453;1259;140033;-67
2023/12/04 11:42:30;;;;;;;30.80;17.40;;;;;;;-1.39;82.64;100374.13;219063;1254;139878;-67
2023/12/04 11:47:55;;;;;;;34.00;18.70;;;;;;;-1.16;82.41;100367.97;219159;1257;140895;-67
2023/12/04 11:53:03;;;;;;;32.80;18.60;;;;;;;-1.07;82.03;100362.38;218567;1260;140047;-67
2023/12/04 11:58:12;;;;;;;31.60;17.00;;;;;;;-1.09;81.90;100354.86;218407;1257;140120;-69
2023/12/04 12:03:17;;;;;;;26.10;18.20;;;;;;;-1.12;81.66;100343.47;219031;1259;140423;-67
2023/12/04 12:08:29;;;;;;;30.70;18.20;;;;;;;-1.11;81.50;100343.84;218772;1259;140043;-67
2023/12/04 12:13:33;;;;;;;34.70;18.00;;;;;;;-1.09;81.30;100344.05;219730;1254;140012;-67
2023/12/04 12:18:37;;;;;;;34.20;18.70;;;;;;;-1.19;81.45;100339.20;219911;1254;140717;-66
2023/12/04 12:23:43;;;;;;;33.70;19.30;;;;;;;-1.29;81.19;100337.05;218042;1259;140111;-67
2023/12/04 12:28:48;;;;;;;31.60;18.70;;;;;;;-1.39;80.89;100333.67;219637;1257;141960;-67
2023/12/04 12:33:57;;;;;;;27.10;14.70;;;;;;;-1.38;81.20;100327.30;220427;1257;140697;-69
2023/12/04 12:39:08;;;;;;;28.60;17.50;;;;;;;-1.33;80.63;100325.29;219968;1254;140071;-68
2023/12/04 12:44:14;;;;;;;34.30;19.00;;;;;;;-1.42;80.28;100318.73;219126;1254;141993;-70
2023/12/04 12:49:22;;;;;;;32.70;18.30;;;;;;;-1.43;80.43;100309.92;219547;1254;140215;-68
2023/12/04 12:54:44;;;;;;;40.40;21.00;;;;;;;-1.34;80.57;100307.17;218969;1254;141636;-68
2023/12/04 12:59:49;;;;;;;39.50;23.30;;;;;;;-1.20;80.82;100301.81;219641;1254;140086;-67
2023/12/04 13:04:58;;;;;;;32.60;16.40;;;;;;;-1.10;80.70;100295.98;218340;1258;140090;-68
2023/12/04 13:10:05;;;;;;;39.30;22.70;;;;;;;-1.19;79.94;100296.00;218340;1260;139817;-67
2023/12/04 13:15:11;;;;;;;40.00;21.90;;;;;;;-1.28;80.22;100290.23;218775;1259;139929;-69
2023/12/04 13:20:17;;;;;;;37.00;19.40;;;;;;;-1.39;80.14;100285.55;218901;1260;140400;-72
2023/12/04 13:25:24;;;;;;;31.90;18.50;;;;;;;-1.45;80.18;100277.59;218873;1257;140207;-69
2023/12/04 13:30:35;;;;;;;31.30;16.00;;;;;;;-1.50;80.15;100272.28;218767;1259;140174;-71
2023/12/04 13:35:41;;;;;;;28.80;16.40;;;;;;;-1.56;80.23;100271.52;218290;1256;141177;-70
2023/12/04 13:40:59;;;;;;;26.00;15.10;;;;;;;-1.67;80.47;100271.60;218362;1254;140254;-66
2023/12/04 13:46:09;;;;;;;57.20;22.10;;;;;;;-1.83;80.01;100267.36;218681;1258;140419;-73
2023/12/04 13:51:16;;;;;;;45.30;20.90;;;;;;;-2.09;79.63;100260.20;218481;1260;140531;-72
2023/12/04 13:56:41;;;;;;;43.00;20.60;;;;;;;-2.30;79.60;100256.19;218727;1258;140164;-69
2023/12/04 14:01:49;;;;;;;43.10;22.90;;;;;;;-2.51;79.68;100250.96;218949;1256;140459;-68
2023/12/04 14:06:56;;;;;;;40.90;20.20;;;;;;;-2.69;79.61;100245.83;218684;1257;140401;-68
2023/12/04 14:12:10;;;;;;;44.90;21.50;;;;;;;-2.98;78.83;100242.34;218606;1255;140199;-73
2023/12/04 14:17:15;;;;;;;47.60;25.40;;;;;;;-3.24;79.06;100243.08;218360;1258;141106;-69
2023/12/04 14:22:22;;;;;;;46.00;22.90;;;;;;;-3.48;78.97;100247.95;220229;1254;140540;-69
2023/12/04 14:27:27;;;;;;;39.40;21.90;;;;;;;-3.73;78.61;100251.17;218718;1254;140190;-72
2023/12/04 14:32:31;;;;;;;41.40;20.70;;;;;;;-4.01;78.35;100250.38;219343;1254;140816;-69
2023/12/04 14:37:48;;;;;;;32.10;18.40;;;;;;;-4.27;78.47;100261.78;218703;1254;140551;-69
2023/12/04 14:42:52;;;;;;;33.80;19.40;;;;;;;-4.58;77.78;100255.50;219024;1254;140524;-71
2023/12/04 14:47:57;;;;;;;40.20;20.70;;;;;;;-4.87;78.07;100251.98;219837;1254;140501;-69
2023/12/04 14:53:28;;;;;;;38.80;22.30;;;;;;;-5.09;77.96;100251.11;218838;1254;141627;-69
2023/12/04 14:59:07;;;;;;;38.20;22.30;;;;;;;-5.33;77.95;100254.09;219336;1254;141368;-68
2023/12/04 15:10:29;;;;;;;48.10;21.60;;;;;;;-5.79;78.01;100249.04;219068;1254;142003;-69
2023/12/04 15:15:12;;;;;;;35.70;19.20;;;;;;;-6.00;78.37;100245.33;218235;1254;140393;-68
2023/12/04 15:20:32;;;;;;;36.60;18.10;;;;;;;-6.18;78.23;100246.89;218379;1259;140046;-69
2023/12/04 15:25:36;;;;;;;43.10;19.90;;;;;;;-6.38;78.60;100249.27;218306;1255;142260;-66
2023/12/04 15:30:44;;;;;;;38.40;19.60;;;;;;;-6.51;78.56;100249.52;218603;1254;141701;-67
2023/12/04 15:35:50;;;;;;;37.60;19.00;;;;;;;-6.69;78.39;100248.09;218416;1254;140098;-68
2023/12/04 15:40:56;;;;;;;48.30;21.40;;;;;;;-6.88;78.48;100243.76;218972;1254;141410;-67
2023/12/04 15:46:02;;;;;;;50.30;21.90;;;;;;;-7.02;78.67;100242.60;217785;1254;141571;-66
2023/12/04 15:51:06;;;;;;;41.40;20.50;;;;;;;-7.21;78.77;100246.14;218216;1254;140762;-67
2023/12/04 15:56:12;;;;;;;43.80;20.40;;;;;;;-7.35;78.52;100246.35;218332;1255;141216;-67
2023/12/04 16:01:19;;;;;;;48.30;26.20;;;;;;;-7.49;78.69;100240.61;217953;1254;140496;-66
2023/12/04 16:06:26;;;;;;;45.20;23.90;;;;;;;-7.61;78.81;100236.27;218680;1254;209161;-67
2023/12/04 16:11:32;;;;;;;55.60;24.30;;;;;;;-7.66;79.14;100232.70;218166;1254;141369;-67
2023/12/04 16:16:40;;;;;;;49.40;26.40;;;;;;;-7.72;79.32;100236.55;218873;1254;140235;-67
2023/12/04 16:21:45;;;;;;;49.60;25.70;;;;;;;-7.79;79.41;100222.98;219992;1254;140632;-68
2023/12/04 16:26:53;;;;;;;51.90;24.70;;;;;;;-7.78;79.33;100216.03;219694;1254;142732;-68
2023/12/04 16:32:04;;;;;;;54.70;25.60;;;;;;;-7.81;79.49;100217.23;220851;1254;141548;-68
2023/12/04 16:37:09;;;;;;;69.30;32.80;;;;;;;-7.69;80.32;100218.68;220697;1254;140464;-67
2023/12/04 16:42:14;;;;;;;53.10;26.90;;;;;;;-7.48;81.25;100215.45;220164;1254;141429;-68
2023/12/04 16:47:20;;;;;;;102.00;41.10;;;;;;;-7.24;81.95;100216.54;219702;1254;140557;-66
2023/12/04 16:52:26;;;;;;;101.30;40.70;;;;;;;-7.04;82.69;100211.45;219833;1254;142882;-66
2023/12/04 16:57:33;;;;;;;69.70;32.20;;;;;;;-6.86;82.94;100211.51;217961;1254;140596;-65
2023/12/04 17:02:44;;;;;;;74.20;35.60;;;;;;;-6.72;83.29;100209.45;218986;1254;142001;-67
2023/12/04 17:07:55;;;;;;;57.00;31.50;;;;;;;-6.65;83.30;100204.95;218451;1257;140587;-65
2023/12/04 17:13:00;;;;;;;60.00;30.10;;;;;;;-6.60;83.36;100198.71;219027;1257;140756;-66
2023/12/04 17:18:05;;;;;;;54.40;28.40;;;;;;;-6.57;83.36;100193.98;218719;1257;141598;-67
2023/12/04 17:23:13;;;;;;;60.60;30.00;;;;;;;-6.55;83.73;100188.98;217920;1254;141069;-67
2023/12/04 17:28:19;;;;;;;68.00;30.90;;;;;;;-6.53;83.73;100186.60;218541;1253;142106;-67
2023/12/04 17:33:23;;;;;;;86.60;37.60;;;;;;;-6.53;83.74;100183.48;217859;1254;140573;-66
2023/12/04 17:38:27;;;;;;;76.70;36.30;;;;;;;-6.55;83.78;100183.98;218514;1254;140799;-67
2023/12/04 17:43:32;;;;;;;85.80;38.30;;;;;;;-6.58;83.59;100188.34;217941;1254;140721;-66
2023/12/04 17:48:41;;;;;;;71.20;33.60;;;;;;;-6.61;83.49;100194.48;218707;1254;140422;-66
2023/12/04 17:53:46;;;;;;;68.90;32.20;;;;;;;-6.64;83.74;100193.61;218344;1255;140579;-68
2023/12/04 17:58:52;;;;;;;63.00;32.40;;;;;;;-6.66;83.77;100184.80;217993;1254;140398;-68
2023/12/04 18:03:58;;;;;;;88.60;40.20;;;;;;;-6.70;84.03;100190.24;218580;1257;140415;-71
2023/12/04 18:09:04;;;;;;;58.10;27.40;;;;;;;-6.71;84.11;100192.38;219181;1254;141212;-67
2023/12/04 18:14:09;;;;;;;76.00;37.80;;;;;;;-6.70;84.24;100179.75;218885;1255;140708;-68
2023/12/04 18:19:13;;;;;;;79.80;37.00;;;;;;;-6.69;84.22;100178.08;218202;1254;143268;-68
2023/12/04 18:24:20;;;;;;;67.80;30.30;;;;;;;-6.72;84.22;100177.41;218841;1254;143125;-68
2023/12/04 18:29:26;;;;;;;87.70;40.90;;;;;;;-6.75;84.12;100171.16;219243;1254;140680;-69
2023/12/04 18:34:31;;;;;;;94.60;43.10;;;;;;;-6.80;84.45;100171.17;217143;1254;3170467;-67
2023/12/04 18:39:37;;;;;;;80.00;43.50;;;;;;;-6.81;84.12;100166.17;219342;1254;140662;-72
2023/12/04 18:44:42;;;;;;;90.90;41.10;;;;;;;-6.78;84.32;100163.05;219557;1253;141289;-67
2023/12/04 18:49:52;;;;;;;94.10;45.40;;;;;;;-6.76;84.33;100153.06;219254;1253;141522;-67
2023/12/04 18:54:58;;;;;;;77.20;37.40;;;;;;;-6.72;84.47;100157.06;219494;1254;141778;-67
2023/12/04 19:00:04;;;;;;;81.40;42.80;;;;;;;-6.64;84.54;100158.05;218125;1254;142137;-68
2023/12/04 19:05:11;;;;;;;85.20;41.20;;;;;;;-6.61;84.47;100155.52;218500;1254;140489;-68
2023/12/04 19:10:16;;;;;;;55.10;27.50;;;;;;;-6.58;84.77;100154.77;218046;1257;142645;-67
2023/12/04 19:15:21;;;;;;;72.80;35.90;;;;;;;-6.57;84.57;100144.70;218538;1254;140404;-67
2023/12/04 19:20:29;;;;;;;88.30;39.00;;;;;;;-6.57;84.59;100145.42;218924;1256;140634;-67
2023/12/04 19:25:35;;;;;;;90.00;39.70;;;;;;;-6.56;84.71;100142.77;218859;1254;141375;-68
2023/12/04 19:30:55;;;;;;;78.20;35.40;;;;;;;-6.53;84.67;100139.00;218324;1257;141471;-67
2023/12/04 19:36:05;;;;;;;73.40;34.60;;;;;;;-6.47;84.95;100133.56;218831;1254;140651;-68
2023/12/04 19:41:11;;;;;;;77.90;34.20;;;;;;;-6.43;84.80;100124.48;218432;1255;140360;-70
2023/12/04 19:46:16;;;;;;;79.90;35.00;;;;;;;-6.43;84.88;100122.40;218381;1257;141184;-69
2023/12/04 19:51:21;;;;;;;68.10;32.60;;;;;;;-6.46;84.89;100123.10;218706;1257;142163;-71
2023/12/04 19:56:27;;;;;;;67.70;33.90;;;;;;;-6.51;84.83;100121.80;218558;1258;141473;-69
2023/12/04 20:01:32;;;;;;;76.10;37.60;;;;;;;-6.52;84.92;100115.78;218114;1257;140531;-68
2023/12/04 20:06:36;;;;;;;64.70;28.50;;;;;;;-6.52;84.85;100112.51;218719;1254;140570;-70
2023/12/04 20:11:41;;;;;;;66.10;32.40;;;;;;;-6.53;85.01;100110.83;218883;1254;140373;-69
2023/12/04 20:16:51;;;;;;;63.90;31.60;;;;;;;-6.53;85.10;100106.54;219338;1254;142935;-67
2023/12/04 20:22:00;;;;;;;51.40;26.20;;;;;;;-6.51;85.25;100099.11;218329;1257;140809;-67
2023/12/04 20:27:05;;;;;;;67.70;34.50;;;;;;;-6.52;84.97;100091.90;218411;1257;140845;-69
2023/12/04 20:32:11;;;;;;;60.50;28.20;;;;;;;-6.52;85.01;100084.48;218617;1254;142756;-71
2023/12/04 20:37:15;;;;;;;61.70;29.80;;;;;;;-6.49;85.09;100081.16;219356;1254;141039;-69
2023/12/04 20:42:19;;;;;;;49.60;24.70;;;;;;;-6.43;85.05;100076.55;218962;1254;141127;-67
2023/12/04 20:47:23;;;;;;;56.00;29.10;;;;;;;-6.37;85.14;100067.77;218398;1257;140805;-69
2023/12/04 20:52:30;;;;;;;43.50;22.70;;;;;;;-6.32;85.14;100072.41;219389;1253;140533;-68
2023/12/04 20:57:33;;;;;;;45.50;21.10;;;;;;;-6.27;85.22;100071.36;218772;1254;140381;-67
2023/12/04 21:02:38;;;;;;;72.90;33.20;;;;;;;-6.23;85.16;100070.15;219372;1254;141633;-68
2023/12/04 21:07:42;;;;;;;62.60;31.90;;;;;;;-6.19;85.36;100073.43;218344;1254;141046;-68
2023/12/04 21:12:47;;;;;;;55.90;27.00;;;;;;;-6.17;85.20;100078.88;218639;1253;140176;-67
2023/12/04 21:17:52;;;;;;;58.90;27.00;;;;;;;-6.17;85.08;100076.26;218874;1254;140460;-69
2023/12/04 21:23:07;;;;;;;55.90;30.00;;;;;;;-6.19;85.32;100074.89;218524;1254;223083;-70
2023/12/04 21:28:13;;;;;;;53.90;27.40;;;;;;;-6.20;85.31;100070.60;218315;1253;140425;-70
2023/12/04 21:33:17;;;;;;;51.00;25.40;;;;;;;-6.20;85.36;100066.94;218213;1254;140929;-68
2023/12/04 21:38:21;;;;;;;59.90;28.90;;;;;;;-6.19;85.59;100062.23;218901;1258;141372;-68
2023/12/04 21:43:25;;;;;;;45.20;21.80;;;;;;;-6.19;85.40;100057.34;218040;1257;140454;-69
2023/12/04 21:48:29;;;;;;;54.20;28.00;;;;;;;-6.17;85.64;100055.81;217900;1259;140419;-68
2023/12/04 21:53:34;;;;;;;45.70;23.70;;;;;;;-6.14;85.43;100046.46;218716;1257;140639;-68
2023/12/04 21:58:38;;;;;;;41.00;21.70;;;;;;;-6.13;85.36;100044.13;218789;1255;141219;-67
2023/12/04 22:03:44;;;;;;;45.60;25.10;;;;;;;-6.11;85.56;100040.44;219246;1256;140966;-68
2023/12/04 22:08:50;;;;;;;57.80;29.70;;;;;;;-6.05;85.46;100028.05;219092;1257;141550;-69
2023/12/04 22:13:57;;;;;;;56.60;27.70;;;;;;;-5.96;85.73;100017.67;218772;1259;141527;-69
2023/12/04 22:19:03;;;;;;;43.40;19.90;;;;;;;-5.88;85.76;100009.23;220552;1256;141133;-70
2023/12/04 22:24:08;;;;;;;47.60;25.90;;;;;;;-5.81;85.68;100003.08;219296;1256;141321;-67
2023/12/04 22:29:12;;;;;;;50.80;25.40;;;;;;;-5.75;85.51;99998.95;220463;1256;140285;-70
2023/12/04 22:34:17;;;;;;;51.60;24.80;;;;;;;-5.70;85.49;99992.84;218731;1259;142857;-71
2023/12/04 22:39:24;;;;;;;59.80;30.20;;;;;;;-5.66;85.57;99983.66;220027;1256;141018;-70
2023/12/04 22:44:29;;;;;;;41.30;19.30;;;;;;;-5.61;85.64;99976.04;218482;1258;141454;-69
2023/12/04 22:49:34;;;;;;;38.20;19.70;;;;;;;-5.54;85.55;99972.70;219382;1256;141264;-68